Grand Junction, Iowa
Current Conditions -  °F | °C
As of 9:35 PM on Saturday 22 Nov 2014 (Local Time) from KPRO Reporting Station
Overcast Overcast  
Wind Chill: 55°   Ceiling: 1500
Heat Index: 55°   Visibility: 10mi
Dew Point: 51°   Wind: 22mph
Humidity: 88%   Direction: 190°S
Pressure: 29.62"   Gusts: NA
Location:  42.03°N, 94.24°W
Report Text: KPRO 230335Z AUTO 19019KT 10SM BKN015 OVC020 13/11 A2962 RMK AO2 T01260107
Loading
Personal Weather Stations






























Interactive Weather Map New forecast layout! Learn more

10-Day Weather Forecast

Advertisements
Track Severe Weather on mobile